createdAt,value
2018-05-27T00:00:02.932Z,12.4
2018-05-27T00:15:03.203Z,12.4
2018-05-27T00:30:02.636Z,12.3
2018-05-27T00:45:02.972Z,12.3
2018-05-27T01:00:02.259Z,12.3
2018-05-27T01:15:02.547Z,12.2
2018-05-27T01:30:02.939Z,12.2
2018-05-27T01:45:02.305Z,12.2
2018-05-27T02:00:02.572Z,12.2
2018-05-27T02:15:04.313Z,12.2
2018-05-27T02:30:02.678Z,12.1
2018-05-27T02:45:02.984Z,12.1
2018-05-27T03:00:02.365Z,12.1
2018-05-27T03:15:02.596Z,12.1
2018-05-27T03:30:02.961Z,12
2018-05-27T03:45:02.304Z,12
2018-05-27T04:00:02.634Z,12
2018-05-27T04:15:02.976Z,11.9
2018-05-27T04:30:02.352Z,11.9
2018-05-27T04:45:02.690Z,11.9
2018-05-27T05:00:02.893Z,11.9
2018-05-27T05:15:03.119Z,11.9
2018-05-27T05:30:02.519Z,11.9
2018-05-27T05:45:02.899Z,11.9
2018-05-27T06:00:03.184Z,11.9
2018-05-27T06:15:02.467Z,11.9
2018-05-27T06:30:02.994Z,11.9
2018-05-27T06:45:02.286Z,12
2018-05-27T07:00:02.300Z,12
2018-05-27T07:15:02.491Z,12.1
2018-05-27T07:30:02.804Z,12.1
2018-05-27T07:45:03.013Z,12.2
2018-05-27T08:00:02.286Z,12.2
2018-05-27T08:15:02.500Z,12.3
2018-05-27T08:30:02.778Z,12.3
2018-05-27T08:45:03.087Z,12.4
2018-05-27T09:00:02.324Z,12.4
2018-05-27T09:15:02.589Z,12.5
2018-05-27T09:30:02.882Z,12.6
2018-05-27T09:45:03.232Z,12.6
2018-05-27T10:00:02.717Z,12.6
2018-05-27T10:15:06.530Z,12.6
2018-05-27T10:30:02.810Z,12.7
2018-05-27T10:45:03.079Z,12.8
2018-05-27T11:02:02.422Z,12.8
2018-05-27T11:17:02.704Z,12.9
2018-05-27T11:32:02.936Z,12.9
2018-05-27T11:45:03.204Z,12.9
2018-05-27T12:00:02.420Z,13
2018-05-27T12:15:02.684Z,13
2018-05-27T12:30:03.113Z,13.1
2018-05-27T12:45:02.402Z,13.1
2018-05-27T13:00:02.602Z,13.2
2018-05-27T13:15:02.874Z,13.2
2018-05-27T13:30:02.315Z,13.2
2018-05-27T13:45:02.688Z,13.2
2018-05-27T14:00:03.115Z,13.2
2018-05-27T14:15:02.675Z,13.2
2018-05-27T14:30:02.978Z,13.2
2018-05-27T14:45:02.285Z,13.3
2018-05-27T15:00:02.501Z,13.3
2018-05-27T15:15:02.745Z,13.3
2018-05-27T15:30:03.086Z,13.3
2018-05-27T15:45:02.316Z,13.3
2018-05-27T16:00:02.503Z,13.3
2018-05-27T16:15:02.824Z,13.2
2018-05-27T16:30:03.319Z,13.2
2018-05-27T16:45:02.726Z,13.2
2018-05-27T17:00:03.240Z,13.2
2018-05-27T17:15:02.663Z,13.2
2018-05-27T17:30:03.266Z,13.1
2018-05-27T17:45:02.713Z,13.1
2018-05-27T18:00:03.126Z,13.1
2018-05-27T18:15:02.843Z,13.1
2018-05-27T18:30:03.492Z,13
2018-05-27T18:45:02.991Z,13
2018-05-27T19:00:02.550Z,12.9
2018-05-27T19:15:03.040Z,12.9
2018-05-27T19:30:02.619Z,12.9
2018-05-27T19:45:03.056Z,12.8
2018-05-27T20:00:02.453Z,12.8
2018-05-27T20:15:02.982Z,12.8
2018-05-27T20:30:02.606Z,12.8
2018-05-27T20:45:03.051Z,12.8
2018-05-27T21:00:02.530Z,12.7
2018-05-27T21:15:03.037Z,12.7
2018-05-27T21:30:02.649Z,12.6
2018-05-27T21:45:03.131Z,12.6
2018-05-27T22:00:02.815Z,12.6
2018-05-27T22:15:03.504Z,12.6
2018-05-27T22:30:03.129Z,12.6
2018-05-27T22:45:02.606Z,12.6
2018-05-27T23:00:02.977Z,12.5
2018-05-27T23:15:02.711Z,12.5
2018-05-27T23:30:03.193Z,12.4
2018-05-27T23:45:02.571Z,12.4
